Time;durP1;ratioP1;P1;durP2;ratioP2;P2;SDS_P1;SDS_P2;PMS_P1;PMS_P2;Temp;Humidity;BMP_temperature;BMP_pressure;BME280_temperature;BME280_humidity;BME280_pressure;Samples;Min_cycle;Max_cycle;Signal;HPM_P1;HPM_P2
2022/03/19 00:00:27;;;;;;;57.28;35.97;;;2.10;99.90;;;;;;5053736;28;20594;-58
2022/03/19 00:02:53;;;;;;;54.47;34.70;;;2.30;99.90;;;;;;5053178;28;20033;-57
2022/03/19 00:05:19;;;;;;;54.88;34.83;;;2.30;99.90;;;;;;5053667;28;20429;-57
2022/03/19 00:07:45;;;;;;;56.00;34.60;;;2.40;99.90;;;;;;5053368;28;20021;-58
2022/03/19 00:10:11;;;;;;;53.47;33.80;;;2.50;99.90;;;;;;5053517;28;20108;-56
2022/03/19 00:12:40;;;;;;;50.30;32.80;;;2.50;99.90;;;;;;5064906;28;20051;-58
2022/03/19 00:15:08;;;;;;;55.22;34.38;;;2.50;99.90;;;;;;5073436;28;20479;-58
2022/03/19 00:17:33;;;;;;;53.28;35.70;;;2.50;99.90;;;;;;5073257;28;20115;-59
2022/03/19 00:19:59;;;;;;;48.22;32.50;;;2.50;99.90;;;;;;5073438;28;20115;-58
2022/03/19 00:22:25;;;;;;;54.78;34.90;;;2.50;99.90;;;;;;5073202;28;20024;-59
2022/03/19 00:24:51;;;;;;;57.58;32.42;;;2.60;99.90;;;;;;5071740;28;20395;-58
2022/03/19 00:27:16;;;;;;;57.08;35.08;;;2.60;99.90;;;;;;5060313;28;20025;-58
2022/03/19 00:29:42;;;;;;;54.40;34.45;;;2.60;99.90;;;;;;5051612;28;20032;-57
2022/03/19 00:32:08;;;;;;;50.45;33.38;;;2.60;99.90;;;;;;5053079;28;20050;-57
2022/03/19 00:34:34;;;;;;;54.55;35.00;;;2.60;99.90;;;;;;5052983;28;20029;-57
2022/03/19 00:37:00;;;;;;;52.25;33.75;;;2.60;99.90;;;;;;5052998;28;20121;-58
2022/03/19 00:39:25;;;;;;;50.78;33.83;;;2.50;99.90;;;;;;5051953;28;20032;-56
2022/03/19 00:41:54;;;;;;;54.60;34.45;;;2.50;99.90;;;;;;5068709;28;20064;-56
2022/03/19 00:44:23;;;;;;;54.05;33.95;;;2.50;99.90;;;;;;5072857;28;20443;-58
2022/03/19 00:46:49;;;;;;;52.20;34.00;;;2.40;99.90;;;;;;5072567;28;20463;-58
2022/03/19 00:49:15;;;;;;;55.60;32.83;;;2.50;99.90;;;;;;5072700;28;20024;-58
2022/03/19 00:51:40;;;;;;;50.17;31.67;;;2.40;99.90;;;;;;5072566;28;20021;-57
2022/03/19 00:54:08;;;;;;;48.45;33.42;;;2.40;99.90;;;;;;5072629;28;20040;-58
2022/03/19 00:56:34;;;;;;;51.30;31.80;;;2.40;99.90;;;;;;5070070;28;20042;-59
2022/03/19 00:59:00;;;;;;;52.10;34.10;;;2.30;99.90;;;;;;5053779;28;20039;-55
2022/03/19 01:01:26;;;;;;;45.72;32.00;;;2.30;99.90;;;;;;5052539;28;20033;-58
2022/03/19 01:03:52;;;;;;;60.08;32.75;;;2.30;99.90;;;;;;5052248;28;20052;-58
2022/03/19 01:06:18;;;;;;;56.42;33.67;;;2.20;99.90;;;;;;5052384;28;20479;-58
2022/03/19 01:08:43;;;;;;;52.42;33.20;;;2.00;99.90;;;;;;5052298;28;20021;-57
2022/03/19 01:11:09;;;;;;;49.95;34.55;;;1.90;99.90;;;;;;5052455;28;20059;-57
2022/03/19 01:13:35;;;;;;;50.83;33.70;;;1.90;99.90;;;;;;5065641;28;20120;-58
2022/03/19 01:16:02;;;;;;;54.30;33.28;;;2.00;99.90;;;;;;5072166;28;20416;-58
2022/03/19 01:18:28;;;;;;;53.42;34.08;;;2.00;99.90;;;;;;5072288;28;20024;-58
2022/03/19 01:20:54;;;;;;;56.58;32.58;;;2.00;99.90;;;;;;5070718;28;20028;-58
2022/03/19 01:23:20;;;;;;;53.13;32.15;;;2.00;99.90;;;;;;5071916;28;20506;-58
2022/03/19 01:25:45;;;;;;;51.15;33.00;;;2.00;99.90;;;;;;5072072;28;20089;-56
2022/03/19 01:28:11;;;;;;;52.08;33.67;;;1.90;99.90;;;;;;5057665;28;20045;-57
2022/03/19 01:30:37;;;;;;;51.85;32.88;;;1.90;99.90;;;;;;5050619;28;20032;-58
2022/03/19 01:33:03;;;;;;;63.35;35.67;;;2.10;99.90;;;;;;5050693;28;20025;-57
2022/03/19 01:35:28;;;;;;;58.53;33.58;;;2.10;99.90;;;;;;5051389;28;20029;-57
2022/03/19 01:37:54;;;;;;;52.08;33.53;;;2.00;99.90;;;;;;5050932;28;20064;-58
2022/03/19 01:40:20;;;;;;;51.83;33.35;;;2.00;99.90;;;;;;5050910;28;20021;-58
2022/03/19 01:42:48;;;;;;;55.90;35.08;;;1.90;99.90;;;;;;5061608;28;20423;-58
2022/03/19 01:45:18;;;;;;;50.53;33.85;;;1.80;99.90;;;;;;5071374;28;20163;-58
2022/03/19 01:47:44;;;;;;;51.20;34.15;;;1.70;99.90;;;;;;5070426;28;20070;-57
2022/03/19 01:50:11;;;;;;;54.92;34.15;;;1.60;99.90;;;;;;5070337;28;20111;-57
2022/03/19 01:52:38;;;;;;;71.85;39.97;;;1.50;99.90;;;;;;5068085;28;20502;-58
2022/03/19 01:55:05;;;;;;;56.83;36.60;;;1.40;99.90;;;;;;5051159;28;20159;-58
2022/03/19 01:57:34;;;;;;;67.40;39.40;;;1.40;99.90;;;;;;5050347;28;20040;-56
2022/03/19 02:00:01;;;;;;;69.55;38.75;;;1.30;99.90;;;;;;5051202;28;20029;-57
2022/03/19 02:02:27;;;;;;;61.90;37.10;;;1.20;99.90;;;;;;5051457;28;20035;-58
2022/03/19 02:04:53;;;;;;;79.70;40.63;;;1.10;99.90;;;;;;5050453;28;20029;-58
2022/03/19 02:07:19;;;;;;;62.85;37.88;;;1.00;99.90;;;;;;5052480;28;20070;-58
2022/03/19 02:09:45;;;;;;;66.07;38.88;;;1.00;99.90;;;;;;5071058;28;20024;-57
2022/03/19 02:12:11;;;;;;;82.32;46.38;;;1.00;99.90;;;;;;5071020;28;20028;-58
2022/03/19 02:14:38;;;;;;;80.63;42.65;;;0.90;99.90;;;;;;5070865;28;20053;-56
2022/03/19 02:17:06;;;;;;;70.65;38.90;;;0.90;99.90;;;;;;5070938;28;20028;-56
2022/03/19 02:19:33;;;;;;;115.35;52.95;;;0.90;99.90;;;;;;5070370;28;20036;-57
2022/03/19 02:21:59;;;;;;;74.03;41.88;;;0.80;99.90;;;;;;5070076;28;20096;-57
2022/03/19 02:27:09;;;;;;;65.30;36.65;;;0.70;99.90;;;;;;5070537;28;20035;-57
2022/03/19 02:29:35;;;;;;;74.70;42.10;;;0.70;99.90;;;;;;5071038;28;20013;-58
2022/03/19 02:32:04;;;;;;;91.53;48.05;;;0.60;99.90;;;;;;5071130;28;20029;-55
2022/03/19 02:34:33;;;;;;;67.07;39.40;;;0.50;99.90;;;;;;5071168;28;20468;-57
2022/03/19 02:36:59;;;;;;;62.95;38.72;;;0.40;99.90;;;;;;5068555;28;20041;-58
2022/03/19 02:39:30;;;;;;;61.58;39.53;;;0.50;99.90;;;;;;5052215;28;20484;-57
2022/03/19 02:41:57;;;;;;;66.60;38.15;;;0.40;99.90;;;;;;5051068;28;20037;-57
2022/03/19 02:44:23;;;;;;;67.38;38.65;;;0.40;99.90;;;;;;5049819;28;20039;-58
2022/03/19 02:46:51;;;;;;;60.58;37.20;;;0.40;99.90;;;;;;5050710;28;20025;-58
2022/03/19 02:49:18;;;;;;;60.08;34.72;;;0.40;99.90;;;;;;5050766;28;20017;-58
2022/03/19 02:51:45;;;;;;;62.40;36.08;;;0.30;99.90;;;;;;5050359;28;20082;-56
2022/03/19 02:54:13;;;;;;;58.42;35.38;;;0.30;99.90;;;;;;5059554;28;20583;-56
2022/03/19 02:56:41;;;;;;;56.97;35.63;;;0.20;99.90;;;;;;5070574;28;20120;-56
2022/03/19 02:59:09;;;;;;;63.95;34.78;;;0.10;99.90;;;;;;5070709;28;20063;-58
2022/03/19 03:01:37;;;;;;;56.78;35.58;;;0.10;99.90;;;;;;5070547;28;20032;-57
2022/03/19 03:04:03;;;;;;;62.20;35.92;;;0.00;99.90;;;;;;5074300;28;20029;-57
2022/03/19 03:06:35;;;;;;;63.00;36.70;;;0.00;99.90;;;;;;5074800;28;20126;-58
2022/03/19 03:09:00;;;;;;;62.95;37.15;;;-0.10;99.90;;;;;;5064921;28;20021;-58
2022/03/19 03:11:26;;;;;;;62.70;35.33;;;-0.20;99.90;;;;;;5054586;28;20074;-58
2022/03/19 03:13:52;;;;;;;57.55;35.40;;;-0.20;99.90;;;;;;5054353;28;20110;-56
2022/03/19 03:16:18;;;;;;;56.40;36.10;;;-0.20;99.90;;;;;;5054543;28;20033;-57
2022/03/19 03:18:44;;;;;;;68.55;37.65;;;-0.20;99.90;;;;;;5054560;28;20029;-56
2022/03/19 03:21:10;;;;;;;62.80;37.95;;;-0.20;99.90;;;;;;5054468;28;20032;-57
2022/03/19 03:23:35;;;;;;;70.22;41.47;;;-0.30;99.90;;;;;;5054223;28;20048;-57
2022/03/19 03:26:01;;;;;;;59.38;36.60;;;-0.30;99.90;;;;;;5067449;28;20029;-58
2022/03/19 03:28:27;;;;;;;67.15;40.90;;;-0.30;99.90;;;;;;5074329;28;20028;-57
2022/03/19 03:30:53;;;;;;;73.97;44.53;;;-0.30;99.90;;;;;;5072729;28;20475;-56
2022/03/19 03:33:19;;;;;;;69.15;40.55;;;-0.20;99.90;;;;;;5074211;28;20066;-56
2022/03/19 03:35:45;;;;;;;68.88;38.28;;;-0.20;99.90;;;;;;5073887;28;20039;-58
2022/03/19 03:38:11;;;;;;;88.55;46.22;;;-0.30;99.90;;;;;;5073229;28;20021;-55
2022/03/19 03:40:37;;;;;;;88.30;47.33;;;-0.20;99.90;;;;;;5060315;28;20029;-57
2022/03/19 03:43:03;;;;;;;62.30;38.13;;;-0.20;99.90;;;;;;5053075;28;20037;-55
2022/03/19 03:45:30;;;;;;;67.25;39.55;;;-0.20;99.90;;;;;;5053524;28;20036;-57
2022/03/19 03:47:56;;;;;;;67.57;38.28;;;-0.20;99.90;;;;;;5053470;28;20384;-57
2022/03/19 03:50:21;;;;;;;68.63;39.97;;;-0.20;99.90;;;;;;5053594;28;20021;-57
2022/03/19 03:52:48;;;;;;;63.70;38.28;;;-0.20;99.90;;;;;;5053330;28;20037;-55
2022/03/19 03:55:14;;;;;;;60.63;35.33;;;-0.20;99.90;;;;;;5065142;28;20059;-55
2022/03/19 03:57:40;;;;;;;70.00;41.45;;;-0.10;99.90;;;;;;5072826;28;20440;-57
2022/03/19 04:00:08;;;;;;;77.28;45.40;;;-0.20;99.90;;;;;;5073120;28;20052;-58
2022/03/19 04:02:35;;;;;;;74.53;43.67;;;-0.20;99.90;;;;;;5072869;28;20472;-57
2022/03/19 04:05:01;;;;;;;63.97;38.03;;;-0.20;99.90;;;;;;5072612;28;20406;-57
2022/03/19 04:07:27;;;;;;;63.47;37.58;;;-0.20;99.90;;;;;;5072559;28;20051;-58
2022/03/19 04:09:53;;;;;;;61.25;38.22;;;-0.30;99.90;;;;;;5072685;28;20051;-57
2022/03/19 04:12:19;;;;;;;67.43;39.92;;;-0.30;99.90;;;;;;5054948;28;20035;-56
2022/03/19 04:14:45;;;;;;;56.15;37.70;;;-0.40;99.90;;;;;;5052110;28;20083;-57
2022/03/19 04:17:11;;;;;;;66.72;39.33;;;-0.40;99.90;;;;;;5053302;28;20464;-56
2022/03/19 04:19:36;;;;;;;60.22;37.85;;;-0.40;99.90;;;;;;5052798;28;20021;-58
2022/03/19 04:22:02;;;;;;;66.38;39.90;;;-0.40;99.90;;;;;;5051403;28;20029;-57
2022/03/19 04:24:28;;;;;;;66.57;37.30;;;-0.40;99.90;;;;;;5056178;28;20028;-54
2022/03/19 04:26:53;;;;;;;64.20;37.83;;;-0.40;99.90;;;;;;5052945;28;20085;-57
2022/03/19 04:29:19;;;;;;;68.45;39.40;;;-0.40;99.90;;;;;;5052690;28;20021;-54
2022/03/19 04:31:45;;;;;;;70.03;38.95;;;-0.50;99.90;;;;;;5052472;28;20033;-57
2022/03/19 04:34:10;;;;;;;64.40;39.88;;;-0.50;99.90;;;;;;5052849;28;20021;-57
2022/03/19 04:36:39;;;;;;;61.33;36.00;;;-0.50;99.90;;;;;;5052706;28;20029;-55
2022/03/19 04:39:06;;;;;;;67.53;38.50;;;-0.60;99.90;;;;;;5052572;28;20040;-58
2022/03/19 04:41:33;;;;;;;64.47;39.17;;;-0.70;99.90;;;;;;5063984;28;20119;-57
2022/03/19 04:44:00;;;;;;;68.70;39.40;;;-0.70;99.90;;;;;;5055503;28;20361;-57
2022/03/19 04:46:26;;;;;;;61.05;37.72;;;-0.80;99.90;;;;;;5052606;28;20025;-55
2022/03/19 04:48:53;;;;;;;66.78;40.08;;;-0.70;99.90;;;;;;5052141;28;20074;-57
2022/03/19 04:51:21;;;;;;;61.88;37.35;;;-0.70;99.90;;;;;;5051278;28;20025;-57
2022/03/19 04:53:51;;;;;;;67.82;39.95;;;-0.70;99.90;;;;;;5051966;28;20025;-54
2022/03/19 04:56:18;;;;;;;67.93;41.78;;;-0.70;99.90;;;;;;5052419;28;20476;-57
2022/03/19 04:58:43;;;;;;;66.05;40.60;;;-0.70;99.90;;;;;;5051238;28;20523;-57
2022/03/19 05:01:09;;;;;;;67.53;41.00;;;-0.70;99.90;;;;;;5052460;28;20083;-53
2022/03/19 05:03:35;;;;;;;63.03;40.20;;;-0.80;99.90;;;;;;5050176;28;20075;-57
2022/03/19 05:06:01;;;;;;;64.18;37.78;;;-0.80;99.90;;;;;;5052056;28;20452;-56
2022/03/19 05:08:26;;;;;;;73.22;40.03;;;-0.80;99.90;;;;;;5051288;28;20021;-56
2022/03/19 05:13:36;;;;;;;73.72;39.60;;;-0.90;99.90;;;;;;5068975;28;20047;-58
2022/03/19 05:16:01;;;;;;;65.78;37.95;;;-0.90;99.90;;;;;;5071177;28;20448;-57
2022/03/19 05:18:27;;;;;;;65.45;40.75;;;-0.90;99.90;;;;;;5071584;28;20036;-57
2022/03/19 05:20:53;;;;;;;70.70;40.38;;;-1.00;99.90;;;;;;5070667;28;20119;-58
2022/03/19 05:23:19;;;;;;;76.05;40.40;;;-0.90;99.90;;;;;;5070304;28;20039;-57
2022/03/19 05:25:45;;;;;;;68.72;40.85;;;-1.00;99.90;;;;;;5070843;28;20035;-58
2022/03/19 05:28:10;;;;;;;82.30;44.40;;;-1.00;99.90;;;;;;5069003;28;20056;-58
2022/03/19 05:30:37;;;;;;;82.13;46.17;;;-1.00;99.90;;;;;;5050005;28;20060;-57
2022/03/19 05:33:03;;;;;;;73.07;43.33;;;-1.00;99.90;;;;;;5051632;28;20020;-57
2022/03/19 05:35:30;;;;;;;67.78;40.03;;;-1.00;99.90;;;;;;5051339;28;20080;-57
2022/03/19 05:37:59;;;;;;;74.55;40.83;;;-0.90;99.90;;;;;;5051455;28;20452;-57
2022/03/19 05:40:25;;;;;;;67.55;41.78;;;-0.90;99.90;;;;;;5050310;28;20033;-55
2022/03/19 05:42:51;;;;;;;71.03;40.88;;;-0.90;99.90;;;;;;5051132;28;20108;-58
2022/03/19 05:45:19;;;;;;;71.28;43.15;;;-0.80;99.90;;;;;;5051673;28;20100;-57
2022/03/19 05:47:45;;;;;;;77.82;41.45;;;-0.70;99.90;;;;;;5062449;28;20108;-57
2022/03/19 05:50:12;;;;;;;62.92;38.55;;;-0.60;99.90;;;;;;5071537;28;20103;-57
2022/03/19 05:52:38;;;;;;;71.80;41.17;;;-0.60;99.90;;;;;;5071159;28;20046;-61
2022/03/19 05:55:04;;;;;;;77.90;43.92;;;-0.60;99.90;;;;;;5070018;28;20035;-59
2022/03/19 05:57:30;;;;;;;77.38;42.95;;;-0.50;99.90;;;;;;5071153;28;20362;-59
2022/03/19 05:59:56;;;;;;;72.43;40.75;;;-0.50;99.90;;;;;;5071339;28;20120;-60
2022/03/19 06:02:21;;;;;;;73.80;43.42;;;-0.50;99.90;;;;;;5061321;28;20076;-60
2022/03/19 06:04:47;;;;;;;79.00;44.53;;;-0.40;99.90;;;;;;5051287;28;20040;-60
2022/03/19 06:07:13;;;;;;;77.78;44.40;;;-0.30;99.90;;;;;;5051461;28;20379;-59
2022/03/19 06:09:38;;;;;;;78.90;45.85;;;-0.20;99.90;;;;;;5051284;28;20021;-59
2022/03/19 06:12:04;;;;;;;77.93;46.00;;;-0.10;99.90;;;;;;5051658;28;20025;-59
2022/03/19 06:14:30;;;;;;;91.53;51.75;;;0.10;99.90;;;;;;5051180;28;20141;-60
2022/03/19 06:16:55;;;;;;;87.15;50.55;;;0.30;99.90;;;;;;5059566;28;20036;-59
2022/03/19 06:19:21;;;;;;;91.00;50.88;;;0.60;99.90;;;;;;5059628;28;20154;-54
2022/03/19 06:21:47;;;;;;;91.78;50.80;;;0.90;99.90;;;;;;5050814;28;20074;-59
2022/03/19 06:24:13;;;;;;;103.10;49.42;;;1.10;99.90;;;;;;5049705;28;20391;-59
2022/03/19 06:26:39;;;;;;;86.00;48.95;;;1.30;99.90;;;;;;5049812;28;20033;-59
2022/03/19 06:29:05;;;;;;;83.07;49.63;;;1.50;99.90;;;;;;5050167;28;20036;-62
2022/03/19 06:31:31;;;;;;;91.10;51.88;;;1.80;99.90;;;;;;5051008;28;20040;-59
2022/03/19 06:33:56;;;;;;;91.82;49.40;;;1.90;99.90;;;;;;5050218;28;20033;-59
2022/03/19 06:39:06;;;;;;;82.78;46.47;;;2.10;99.90;;;;;;5073338;28;20062;-60
2022/03/19 06:41:33;;;;;;;81.88;47.42;;;2.30;99.90;;;;;;5073811;28;20032;-59
2022/03/19 06:43:59;;;;;;;77.65;46.13;;;2.40;99.90;;;;;;5074586;28;20027;-59
2022/03/19 06:46:24;;;;;;;84.45;47.13;;;2.50;99.90;;;;;;5074058;28;20383;-59
2022/03/19 06:48:50;;;;;;;76.40;44.90;;;2.60;99.90;;;;;;5073499;28;20037;-59
2022/03/19 06:51:20;;;;;;;73.50;45.80;;;2.70;99.90;;;;;;5055498;28;20032;-59
2022/03/19 06:53:47;;;;;;;76.07;42.65;;;2.80;99.90;;;;;;5053288;28;20051;-60
2022/03/19 06:56:13;;;;;;;79.68;44.10;;;2.90;99.90;;;;;;5053914;28;20615;-60
2022/03/19 06:58:40;;;;;;;75.25;44.55;;;2.90;99.90;;;;;;5054640;28;20086;-59
2022/03/19 07:01:05;;;;;;;76.65;45.90;;;3.00;99.90;;;;;;5054620;28;20028;-59
2022/03/19 07:03:31;;;;;;;77.30;44.50;;;3.10;99.90;;;;;;5073524;28;20050;-59
2022/03/19 07:05:57;;;;;;;71.43;42.78;;;3.20;99.90;;;;;;5074497;28;20047;-59
2022/03/19 07:08:23;;;;;;;70.47;43.83;;;3.20;99.90;;;;;;5074561;28;20052;-59
2022/03/19 07:10:49;;;;;;;68.75;46.00;;;3.20;99.90;;;;;;5074210;28;20505;-59
2022/03/19 07:13:15;;;;;;;70.75;44.28;;;3.40;99.90;;;;;;5074393;28;20036;-59
2022/03/19 07:15:41;;;;;;;69.20;40.50;;;3.40;99.90;;;;;;5074059;28;20086;-60
2022/03/19 07:18:06;;;;;;;60.95;40.97;;;3.40;99.90;;;;;;5056252;28;20083;-59
2022/03/19 07:20:32;;;;;;;64.88;39.95;;;3.50;99.90;;;;;;5053008;28;20403;-59
2022/03/19 07:23:06;;;;;;;71.10;42.28;;;3.60;99.90;;;;;;5054151;28;20078;-59
2022/03/19 07:25:37;;;;;;;74.38;45.13;;;3.60;99.90;;;;;;5054460;28;20108;-59
2022/03/19 07:28:09;;;;;;;68.57;40.53;;;3.70;99.90;;;;;;5054244;28;20419;-59
2022/03/19 07:30:35;;;;;;;69.13;41.28;;;3.70;99.90;;;;;;5053791;28;20060;-59
2022/03/19 07:33:02;;;;;;;67.22;40.67;;;3.90;99.90;;;;;;5055081;28;20174;-56
2022/03/19 07:35:27;;;;;;;70.18;40.08;;;3.90;99.90;;;;;;5053935;28;20098;-58
2022/03/19 07:37:54;;;;;;;69.03;41.63;;;3.90;99.90;;;;;;5055042;28;20100;-59
2022/03/19 07:43:07;;;;;;;61.47;38.80;;;3.80;99.90;;;;;;5054038;28;20040;-59
2022/03/19 07:45:36;;;;;;;58.63;36.47;;;3.80;99.90;;;;;;5072017;28;20094;-58
2022/03/19 07:48:02;;;;;;;69.43;40.33;;;3.70;99.90;;;;;;5073488;28;20035;-59
2022/03/19 07:50:28;;;;;;;62.25;38.63;;;3.90;99.90;;;;;;5072484;28;20508;-60
2022/03/19 07:52:54;;;;;;;59.00;36.90;;;4.00;99.90;;;;;;5073623;28;20028;-60
2022/03/19 07:55:19;;;;;;;63.35;40.03;;;4.10;99.90;;;;;;5073855;28;20040;-56
2022/03/19 07:57:45;;;;;;;63.88;38.78;;;4.10;99.90;;;;;;5055025;28;20464;-59
2022/03/19 08:00:12;;;;;;;75.05;45.42;;;4.10;99.90;;;;;;5053662;28;20112;-57
2022/03/19 08:02:41;;;;;;;66.30;41.72;;;4.00;99.90;;;;;;5053280;28;20059;-56
2022/03/19 08:05:08;;;;;;;62.30;39.95;;;4.00;99.90;;;;;;5053581;28;20032;-59
2022/03/19 08:07:34;;;;;;;61.45;38.85;;;4.30;99.90;;;;;;5053743;28;20463;-58
2022/03/19 08:10:00;;;;;;;64.65;41.38;;;4.50;99.90;;;;;;5053245;28;20029;-57
2022/03/19 08:12:27;;;;;;;59.05;36.75;;;4.50;99.90;;;;;;5053132;28;20029;-60
2022/03/19 08:14:59;;;;;;;58.83;39.42;;;4.70;99.90;;;;;;5052323;28;20538;-59
2022/03/19 08:17:26;;;;;;;64.57;40.05;;;4.70;99.90;;;;;;5053615;28;20025;-59
2022/03/19 08:19:52;;;;;;;65.72;40.45;;;4.80;99.90;;;;;;5052273;28;20364;-59
2022/03/19 08:22:18;;;;;;;67.25;39.95;;;4.60;99.90;;;;;;5053234;28;20163;-60
2022/03/19 08:24:46;;;;;;;59.85;39.55;;;4.70;99.90;;;;;;5067725;28;20120;-59
2022/03/19 08:27:12;;;;;;;58.15;37.92;;;4.90;99.90;;;;;;5072977;28;20119;-59
2022/03/19 08:29:38;;;;;;;64.10;39.70;;;5.00;99.90;;;;;;5072865;28;20166;-59
2022/03/19 08:32:04;;;;;;;60.30;38.08;;;4.90;99.90;;;;;;5073152;28;20108;-59
2022/03/19 08:34:30;;;;;;;63.00;38.55;;;4.70;99.90;;;;;;5072902;28;20028;-59
2022/03/19 08:36:56;;;;;;;53.78;36.13;;;5.00;99.90;;;;;;5072401;28;20028;-59
2022/03/19 08:42:05;;;;;;;54.08;34.72;;;5.30;99.90;;;;;;5053062;28;20048;-59
2022/03/19 08:44:31;;;;;;;62.42;36.78;;;5.50;99.90;;;;;;5052543;28;20029;-59
2022/03/19 08:46:57;;;;;;;60.58;35.10;;;5.60;99.90;;;;;;5052801;28;20108;-59
2022/03/19 08:49:22;;;;;;;62.63;36.38;;;5.40;99.40;;;;;;5052322;28;20111;-59
2022/03/19 08:51:48;;;;;;;61.85;36.30;;;5.30;99.30;;;;;;5052401;28;20025;-59
2022/03/19 08:54:17;;;;;;;67.28;36.30;;;5.30;99.90;;;;;;5067218;28;20040;-59
2022/03/19 08:56:44;;;;;;;60.85;36.70;;;5.30;99.90;;;;;;5072477;28;20039;-59
2022/03/19 08:59:11;;;;;;;57.08;36.97;;;5.50;99.90;;;;;;5070017;28;20036;-57
2022/03/19 09:01:38;;;;;;;57.45;36.60;;;5.60;99.90;;;;;;5066855;28;20431;-59
2022/03/19 09:04:04;;;;;;;57.53;34.80;;;5.80;99.90;;;;;;5052142;28;20020;-59
2022/03/19 09:06:30;;;;;;;59.17;37.92;;;6.00;99.90;;;;;;5052200;28;20578;-59
2022/03/19 09:08:56;;;;;;;56.72;36.35;;;6.10;99.90;;;;;;5051837;28;20112;-58
2022/03/19 09:11:23;;;;;;;56.05;36.10;;;6.00;99.20;;;;;;5050508;28;20116;-58
2022/03/19 09:13:50;;;;;;;65.18;37.42;;;6.00;98.90;;;;;;5051966;28;20060;-59
2022/03/19 09:16:17;;;;;;;75.25;42.85;;;6.10;99.90;;;;;;5051368;28;20112;-60
2022/03/19 09:18:43;;;;;;;64.72;44.13;;;6.10;99.90;;;;;;5051070;28;20036;-59
2022/03/19 09:21:08;;;;;;;66.30;39.78;;;6.40;99.90;;;;;;5060798;28;20028;-59
2022/03/19 09:23:34;;;;;;;66.38;40.15;;;6.50;99.90;;;;;;5070987;28;20020;-59
2022/03/19 09:26:00;;;;;;;74.10;43.35;;;6.70;99.90;;;;;;5071308;28;20028;-59
2022/03/19 09:28:26;;;;;;;126.57;53.05;;;6.90;99.90;;;;;;5071478;28;20044;-59
2022/03/19 09:30:52;;;;;;;166.85;57.17;;;7.00;99.90;;;;;;5071561;28;20035;-59
2022/03/19 09:33:18;;;;;;;237.52;77.13;;;7.30;99.90;;;;;;5071465;28;20590;-59
2022/03/19 09:35:45;;;;;;;68.10;44.80;;;7.40;99.90;;;;;;5060920;28;20160;-59
2022/03/19 09:38:11;;;;;;;63.50;40.92;;;7.40;99.90;;;;;;5060797;28;20012;-59
2022/03/19 09:40:38;;;;;;;61.08;39.88;;;7.40;99.60;;;;;;5071254;28;20025;-59
2022/03/19 09:43:04;;;;;;;65.25;41.72;;;7.60;98.60;;;;;;5071308;28;20064;-60
2022/03/19 09:45:30;;;;;;;62.72;39.15;;;7.90;99.20;;;;;;5071654;28;20068;-59
2022/03/19 09:47:56;;;;;;;76.57;43.72;;;8.00;96.90;;;;;;5070943;28;20021;-58
2022/03/19 09:50:22;;;;;;;75.93;44.05;;;7.90;97.30;;;;;;5071515;28;20635;-59
2022/03/19 09:52:53;;;;;;;78.50;42.42;;;8.10;98.60;;;;;;5062926;28;20489;-59
2022/03/19 09:55:21;;;;;;;53.75;36.45;;;8.40;96.70;;;;;;5050752;28;20452;-58
2022/03/19 09:57:47;;;;;;;53.15;33.92;;;8.10;94.10;;;;;;5050770;28;20033;-60
2022/03/19 10:00:13;;;;;;;58.03;37.50;;;8.00;93.20;;;;;;5048930;28;20028;-59
2022/03/19 10:03:02;;;;;;;57.25;35.83;;;8.30;93.70;;;;;;5050191;28;20420;-60
2022/03/19 10:08:36;;;;;;;66.13;40.30;;;8.00;93.50;;;;;;5065436;28;20071;-59
2022/03/19 10:11:13;;;;;;;63.03;39.15;;;8.40;93.60;;;;;;5070329;28;20658;-59
2022/03/19 10:13:46;;;;;;;64.63;35.80;;;8.60;93.20;;;;;;5070538;28;20121;-59
2022/03/19 10:16:26;;;;;;;68.78;39.50;;;9.00;92.40;;;;;;5070512;28;20037;-59
2022/03/19 10:19:00;;;;;;;61.10;38.05;;;9.30;91.80;;;;;;5071021;28;20016;-59
2022/03/19 10:21:28;;;;;;;67.05;39.28;;;9.50;91.90;;;;;;5069699;28;20016;-59
2022/03/19 10:23:55;;;;;;;53.63;36.70;;;9.60;91.30;;;;;;5050395;28;20033;-59
2022/03/19 10:26:28;;;;;;;47.47;33.90;;;9.70;86.70;;;;;;5051070;28;20029;-59
2022/03/19 10:29:05;;;;;;;52.67;35.70;;;9.70;84.20;;;;;;5049802;28;20025;-59
2022/03/19 10:31:36;;;;;;;55.80;33.65;;;9.60;86.70;;;;;;5050983;28;20029;-59
2022/03/19 10:34:06;;;;;;;52.90;33.88;;;9.60;82.40;;;;;;5049857;28;20028;-59
2022/03/19 10:36:42;;;;;;;48.92;35.05;;;9.70;83.00;;;;;;5070213;28;20025;-59
2022/03/19 10:39:22;;;;;;;52.72;35.25;;;9.70;81.50;;;;;;5071413;28;20033;-60
2022/03/19 10:41:49;;;;;;;50.20;35.65;;;9.60;80.90;;;;;;5071080;28;20032;-59
2022/03/19 10:44:20;;;;;;;49.08;34.08;;;9.90;82.40;;;;;;5056907;28;20377;-59
2022/03/19 10:47:00;;;;;;;59.88;33.20;;;10.00;82.70;;;;;;5050209;28;20045;-59
2022/03/19 10:49:29;;;;;;;48.67;35.40;;;10.00;83.10;;;;;;5049966;28;20439;-59
2022/03/19 10:51:57;;;;;;;49.95;36.35;;;10.10;83.70;;;;;;5050273;28;20063;-59
2022/03/19 10:54:23;;;;;;;45.88;33.45;;;9.90;83.00;;;;;;5063874;28;20119;-59
2022/03/19 10:56:50;;;;;;;49.72;33.50;;;10.00;83.90;;;;;;5070664;28;20104;-59
2022/03/19 10:59:16;;;;;;;55.33;31.88;;;10.10;79.90;;;;;;5071080;28;20051;-59
2022/03/19 11:01:43;;;;;;;52.50;33.17;;;11.30;76.30;;;;;;5070878;28;20017;-59
2022/03/19 11:04:10;;;;;;;52.65;35.22;;;12.10;73.20;;;;;;5070961;28;20052;-60
2022/03/19 11:06:41;;;;;;;45.35;30.85;;;12.90;69.70;;;;;;5058374;28;20468;-59
2022/03/19 11:09:10;;;;;;;48.88;31.75;;;13.40;63.80;;;;;;5055197;28;20036;-59
2022/03/19 11:11:57;;;;;;;48.78;33.22;;;13.50;63.70;;;;;;5050631;28;20142;-59
2022/03/19 11:14:28;;;;;;;41.83;31.08;;;14.20;63.20;;;;;;5050533;28;20045;-57
2022/03/19 11:17:24;;;;;;;46.75;32.33;;;14.80;59.20;;;;;;5050515;28;20033;-61
2022/03/19 11:19:51;;;;;;;42.38;30.40;;;15.80;54.60;;;;;;5050588;28;20074;-60
2022/03/19 11:22:17;;;;;;;40.53;29.70;;;16.20;51.00;;;;;;5050727;28;20354;-61
2022/03/19 11:25:02;;;;;;;46.83;30.15;;;15.60;52.90;;;;;;5071208;28;20035;-61
2022/03/19 11:27:32;;;;;;;40.53;29.15;;;15.80;47.60;;;;;;5074233;28;20361;-60
2022/03/19 11:29:59;;;;;;;36.90;28.73;;;15.90;50.80;;;;;;5074016;28;20079;-60
2022/03/19 11:32:25;;;;;;;40.30;29.52;;;16.70;47.70;;;;;;5074122;28;20115;-61
2022/03/19 11:34:57;;;;;;;43.47;28.60;;;16.60;48.20;;;;;;5057662;28;20041;-61
2022/03/19 11:37:24;;;;;;;43.80;31.25;;;16.80;45.20;;;;;;5037864;28;20651;-60
2022/03/19 11:40:30;;;;;;;46.25;30.55;;;16.90;43.20;;;;;;5038894;28;20033;-60
2022/03/19 11:42:57;;;;;;;37.03;29.08;;;17.30;44.90;;;;;;5062147;28;20060;-60
2022/03/19 11:45:24;;;;;;;43.70;28.48;;;17.40;46.40;;;;;;5063106;28;20056;-60
2022/03/19 11:47:49;;;;;;;47.13;29.75;;;16.80;44.00;;;;;;5061993;28;20042;-60
2022/03/19 11:50:26;;;;;;;39.30;29.20;;;17.70;45.00;;;;;;5053476;28;20025;-60
2022/03/19 11:52:55;;;;;;;53.80;29.02;;;16.60;45.10;;;;;;5059291;28;20031;-60
2022/03/19 11:55:23;;;;;;;43.60;27.42;;;16.30;42.60;;;;;;5042920;28;20061;-60
2022/03/19 11:58:02;;;;;;;44.08;26.35;;;16.80;44.50;;;;;;5042142;28;20048;-60
2022/03/19 12:00:30;;;;;;;36.72;27.75;;;17.40;40.80;;;;;;5042777;28;20044;-60
2022/03/19 12:03:29;;;;;;;35.60;27.50;;;17.10;41.50;;;;;;5043187;28;20044;-60
2022/03/19 12:05:54;;;;;;;39.65;29.25;;;17.10;39.90;;;;;;5051415;28;20049;-60
2022/03/19 12:08:22;;;;;;;38.08;27.63;;;17.20;41.80;;;;;;5042647;28;20032;-60
2022/03/19 12:11:02;;;;;;;36.22;27.13;;;17.50;41.90;;;;;;5042900;28;20064;-60
2022/03/19 12:13:27;;;;;;;41.15;26.30;;;17.60;41.50;;;;;;5042350;28;20045;-60
2022/03/19 12:16:08;;;;;;;40.67;26.13;;;17.70;40.70;;;;;;5042532;28;20053;-60
2022/03/19 12:18:39;;;;;;;36.75;24.98;;;18.00;41.40;;;;;;5042685;28;20036;-59
2022/03/19 12:21:11;;;;;;;34.15;23.63;;;17.40;39.80;;;;;;5043046;28;20028;-60
2022/03/19 12:23:43;;;;;;;37.75;25.75;;;17.60;40.80;;;;;;5041726;28;20036;-60
2022/03/19 12:26:10;;;;;;;31.30;22.40;;;18.10;39.20;;;;;;5043062;28;20029;-60
2022/03/19 12:28:36;;;;;;;33.65;24.55;;;18.10;38.20;;;;;;5042391;28;20361;-60
2022/03/19 12:31:07;;;;;;;33.60;24.02;;;17.50;38.20;;;;;;5043108;28;20028;-60
2022/03/19 12:33:33;;;;;;;33.70;24.20;;;18.00;38.20;;;;;;5041015;28;20029;-60
2022/03/19 12:36:17;;;;;;;31.50;24.60;;;17.70;38.60;;;;;;5042233;28;20031;-60
2022/03/19 12:38:43;;;;;;;;;;;17.70;38.20;;;;;;5043562;28;20060;-60
2022/03/19 12:41:28;;;;;;;34.40;23.83;;;18.50;37.90;;;;;;5041733;28;20382;-60
2022/03/19 12:44:21;;;;;;;32.72;23.00;;;18.60;35.90;;;;;;5041590;28;20021;-60
2022/03/19 12:46:56;;;;;;;38.17;24.15;;;16.10;38.10;;;;;;5043053;28;20036;-59
2022/03/19 12:49:23;;;;;;;35.25;23.52;;;15.90;38.50;;;;;;5041215;28;20096;-60
2022/03/19 12:51:49;;;;;;;38.90;23.02;;;15.80;38.10;;;;;;5041223;28;20074;-60